sensor_id;sensor_type;location;lat;lon;timestamp;P1;durP1;ratioP1;P2;durP2;ratioP2
18610;SDS011;9435;52.122;5.502;2022-07-04T00:00:53;4.68;;;2.15;;
18610;SDS011;9435;52.122;5.502;2022-07-04T00:03:20;5.97;;;2.25;;
18610;SDS011;9435;52.122;5.502;2022-07-04T00:05:47;4.22;;;2.42;;
18610;SDS011;9435;52.122;5.502;2022-07-04T00:08:14;5.25;;;2.50;;
18610;SDS011;9435;52.122;5.502;2022-07-04T00:10:41;4.90;;;2.35;;
18610;SDS011;9435;52.122;5.502;2022-07-04T00:13:08;7.22;;;2.60;;
18610;SDS011;9435;52.122;5.502;2022-07-04T00:15:35;5.82;;;2.50;;
18610;SDS011;9435;52.122;5.502;2022-07-04T00:18:04;4.53;;;2.40;;
18610;SDS011;9435;52.122;5.502;2022-07-04T00:20:31;5.07;;;2.40;;
18610;SDS011;9435;52.122;5.502;2022-07-04T00:22:58;4.53;;;2.47;;
18610;SDS011;9435;52.122;5.502;2022-07-04T00:25:25;4.85;;;2.33;;
18610;SDS011;9435;52.122;5.502;2022-07-04T00:27:52;6.07;;;2.67;;
18610;SDS011;9435;52.122;5.502;2022-07-04T00:30:19;5.00;;;2.70;;
18610;SDS011;9435;52.122;5.502;2022-07-04T00:32:46;4.82;;;2.45;;
18610;SDS011;9435;52.122;5.502;2022-07-04T00:35:14;4.85;;;2.70;;
18610;SDS011;9435;52.122;5.502;2022-07-04T00:37:41;5.65;;;2.70;;
18610;SDS011;9435;52.122;5.502;2022-07-04T00:40:09;5.90;;;2.60;;
18610;SDS011;9435;52.122;5.502;2022-07-04T00:42:36;4.65;;;2.80;;
18610;SDS011;9435;52.122;5.502;2022-07-04T00:45:03;5.93;;;2.47;;
18610;SDS011;9435;52.122;5.502;2022-07-04T00:47:31;4.15;;;2.60;;
18610;SDS011;9435;52.122;5.502;2022-07-04T00:49:59;5.68;;;2.65;;
18610;SDS011;9435;52.122;5.502;2022-07-04T00:52:27;4.30;;;2.70;;
18610;SDS011;9435;52.122;5.502;2022-07-04T00:54:54;4.13;;;2.60;;
18610;SDS011;9435;52.122;5.502;2022-07-04T00:57:22;6.68;;;3.00;;
18610;SDS011;9435;52.122;5.502;2022-07-04T00:59:49;5.38;;;3.08;;
18610;SDS011;9435;52.122;5.502;2022-07-04T01:02:16;4.63;;;2.95;;
18610;SDS011;9435;52.122;5.502;2022-07-04T01:04:43;7.68;;;3.20;;
18610;SDS011;9435;52.122;5.502;2022-07-04T01:07:10;5.88;;;3.10;;
18610;SDS011;9435;52.122;5.502;2022-07-04T01:09:39;4.55;;;3.03;;
18610;SDS011;9435;52.122;5.502;2022-07-04T01:12:06;4.40;;;3.08;;
18610;SDS011;9435;52.122;5.502;2022-07-04T01:14:36;5.25;;;3.10;;
18610;SDS011;9435;52.122;5.502;2022-07-04T01:17:04;5.45;;;3.00;;
18610;SDS011;9435;52.122;5.502;2022-07-04T01:19:31;5.70;;;3.22;;
18610;SDS011;9435;52.122;5.502;2022-07-04T01:22:00;6.32;;;3.05;;
18610;SDS011;9435;52.122;5.502;2022-07-04T01:24:32;4.90;;;2.80;;
18610;SDS011;9435;52.122;5.502;2022-07-04T01:26:59;4.60;;;3.05;;
18610;SDS011;9435;52.122;5.502;2022-07-04T01:29:26;5.15;;;3.22;;
18610;SDS011;9435;52.122;5.502;2022-07-04T01:31:53;6.53;;;3.28;;
18610;SDS011;9435;52.122;5.502;2022-07-04T01:34:20;5.75;;;3.10;;
18610;SDS011;9435;52.122;5.502;2022-07-04T01:36:47;4.35;;;3.30;;
18610;SDS011;9435;52.122;5.502;2022-07-04T01:39:16;8.35;;;3.30;;
18610;SDS011;9435;52.122;5.502;2022-07-04T01:41:43;5.50;;;3.00;;
18610;SDS011;9435;52.122;5.502;2022-07-04T01:44:10;4.65;;;3.10;;
18610;SDS011;9435;52.122;5.502;2022-07-04T01:46:37;6.10;;;3.55;;
18610;SDS011;9435;52.122;5.502;2022-07-04T01:49:04;9.10;;;3.72;;
18610;SDS011;9435;52.122;5.502;2022-07-04T01:51:31;5.07;;;3.08;;
18610;SDS011;9435;52.122;5.502;2022-07-04T01:53:58;6.05;;;3.47;;
18610;SDS011;9435;52.122;5.502;2022-07-04T01:56:26;6.30;;;3.58;;
18610;SDS011;9435;52.122;5.502;2022-07-04T01:58:53;4.88;;;3.20;;
18610;SDS011;9435;52.122;5.502;2022-07-04T02:01:20;5.75;;;3.47;;
18610;SDS011;9435;52.122;5.502;2022-07-04T02:03:55;7.10;;;3.53;;
18610;SDS011;9435;52.122;5.502;2022-07-04T02:06:22;5.72;;;3.45;;
18610;SDS011;9435;52.122;5.502;2022-07-04T02:08:50;5.40;;;3.38;;
18610;SDS011;9435;52.122;5.502;2022-07-04T02:11:36;4.68;;;3.33;;
18610;SDS011;9435;52.122;5.502;2022-07-04T02:14:21;5.70;;;3.33;;
18610;SDS011;9435;52.122;5.502;2022-07-04T02:16:48;6.28;;;3.63;;
18610;SDS011;9435;52.122;5.502;2022-07-04T02:19:15;7.05;;;3.40;;
18610;SDS011;9435;52.122;5.502;2022-07-04T02:21:42;6.25;;;3.15;;
18610;SDS011;9435;52.122;5.502;2022-07-04T02:24:09;5.10;;;3.33;;
18610;SDS011;9435;52.122;5.502;2022-07-04T02:26:38;5.68;;;3.38;;
18610;SDS011;9435;52.122;5.502;2022-07-04T02:29:05;5.30;;;3.63;;
18610;SDS011;9435;52.122;5.502;2022-07-04T02:31:32;5.55;;;3.60;;
18610;SDS011;9435;52.122;5.502;2022-07-04T02:33:59;7.72;;;3.65;;
18610;SDS011;9435;52.122;5.502;2022-07-04T02:36:26;5.93;;;3.30;;
18610;SDS011;9435;52.122;5.502;2022-07-04T02:38:53;8.43;;;3.88;;
18610;SDS011;9435;52.122;5.502;2022-07-04T02:41:20;6.85;;;3.70;;
18610;SDS011;9435;52.122;5.502;2022-07-04T02:43:48;7.20;;;3.70;;
18610;SDS011;9435;52.122;5.502;2022-07-04T02:46:15;6.90;;;3.95;;
18610;SDS011;9435;52.122;5.502;2022-07-04T02:48:42;6.95;;;3.88;;
18610;SDS011;9435;52.122;5.502;2022-07-04T02:51:09;6.45;;;4.00;;
18610;SDS011;9435;52.122;5.502;2022-07-04T02:53:36;6.20;;;3.70;;
18610;SDS011;9435;52.122;5.502;2022-07-04T02:56:03;7.53;;;3.75;;
18610;SDS011;9435;52.122;5.502;2022-07-04T02:58:31;5.78;;;3.90;;
18610;SDS011;9435;52.122;5.502;2022-07-04T03:01:00;5.75;;;3.95;;
18610;SDS011;9435;52.122;5.502;2022-07-04T03:03:27;6.97;;;3.90;;
18610;SDS011;9435;52.122;5.502;2022-07-04T03:05:54;8.98;;;4.00;;
18610;SDS011;9435;52.122;5.502;2022-07-04T03:08:21;8.02;;;4.10;;
18610;SDS011;9435;52.122;5.502;2022-07-04T03:10:48;7.13;;;4.45;;
18610;SDS011;9435;52.122;5.502;2022-07-04T03:13:16;6.65;;;4.20;;
18610;SDS011;9435;52.122;5.502;2022-07-04T03:15:43;6.07;;;4.07;;
18610;SDS011;9435;52.122;5.502;2022-07-04T03:18:12;11.40;;;4.50;;
18610;SDS011;9435;52.122;5.502;2022-07-04T03:20:39;6.55;;;4.40;;
18610;SDS011;9435;52.122;5.502;2022-07-04T03:23:06;5.38;;;4.20;;
18610;SDS011;9435;52.122;5.502;2022-07-04T03:25:33;7.90;;;4.53;;
18610;SDS011;9435;52.122;5.502;2022-07-04T03:28:00;8.60;;;4.60;;
18610;SDS011;9435;52.122;5.502;2022-07-04T03:30:28;7.78;;;4.22;;
18610;SDS011;9435;52.122;5.502;2022-07-04T03:32:55;8.35;;;4.00;;
18610;SDS011;9435;52.122;5.502;2022-07-04T03:35:23;6.53;;;4.10;;
18610;SDS011;9435;52.122;5.502;2022-07-04T03:37:51;7.30;;;4.07;;
18610;SDS011;9435;52.122;5.502;2022-07-04T03:40:18;7.50;;;4.13;;
18610;SDS011;9435;52.122;5.502;2022-07-04T03:42:46;7.00;;;4.40;;
18610;SDS011;9435;52.122;5.502;2022-07-04T03:45:14;7.85;;;4.38;;
18610;SDS011;9435;52.122;5.502;2022-07-04T03:47:41;8.15;;;4.43;;
18610;SDS011;9435;52.122;5.502;2022-07-04T03:50:08;8.25;;;4.70;;
18610;SDS011;9435;52.122;5.502;2022-07-04T03:52:36;6.50;;;4.47;;
18610;SDS011;9435;52.122;5.502;2022-07-04T03:55:04;9.02;;;4.75;;
18610;SDS011;9435;52.122;5.502;2022-07-04T03:57:31;7.72;;;4.68;;
18610;SDS011;9435;52.122;5.502;2022-07-04T03:59:58;8.60;;;5.22;;
18610;SDS011;9435;52.122;5.502;2022-07-04T04:02:25;11.60;;;5.50;;
18610;SDS011;9435;52.122;5.502;2022-07-04T04:04:52;9.52;;;5.25;;
18610;SDS011;9435;52.122;5.502;2022-07-04T04:07:38;11.98;;;6.40;;
18610;SDS011;9435;52.122;5.502;2022-07-04T04:10:06;12.57;;;6.35;;
18610;SDS011;9435;52.122;5.502;2022-07-04T04:12:34;10.30;;;6.60;;
18610;SDS011;9435;52.122;5.502;2022-07-04T04:15:01;12.02;;;6.90;;
18610;SDS011;9435;52.122;5.502;2022-07-04T04:17:28;13.00;;;7.18;;
18610;SDS011;9435;52.122;5.502;2022-07-04T04:19:55;11.18;;;7.43;;
18610;SDS011;9435;52.122;5.502;2022-07-04T04:22:22;13.52;;;7.20;;
18610;SDS011;9435;52.122;5.502;2022-07-04T04:24:50;13.45;;;7.72;;
18610;SDS011;9435;52.122;5.502;2022-07-04T04:27:17;15.90;;;8.20;;
18610;SDS011;9435;52.122;5.502;2022-07-04T04:29:44;12.15;;;7.60;;
18610;SDS011;9435;52.122;5.502;2022-07-04T04:32:11;12.27;;;7.43;;
18610;SDS011;9435;52.122;5.502;2022-07-04T04:34:38;12.82;;;8.00;;
18610;SDS011;9435;52.122;5.502;2022-07-04T04:37:06;14.88;;;8.68;;
18610;SDS011;9435;52.122;5.502;2022-07-04T04:39:33;14.57;;;8.00;;
18610;SDS011;9435;52.122;5.502;2022-07-04T04:42:02;13.75;;;8.05;;
18610;SDS011;9435;52.122;5.502;2022-07-04T04:44:29;13.88;;;7.93;;
18610;SDS011;9435;52.122;5.502;2022-07-04T04:46:56;12.77;;;8.20;;
18610;SDS011;9435;52.122;5.502;2022-07-04T04:49:23;12.77;;;7.95;;
18610;SDS011;9435;52.122;5.502;2022-07-04T04:51:50;19.08;;;8.30;;
18610;SDS011;9435;52.122;5.502;2022-07-04T04:54:17;19.90;;;8.13;;
18610;SDS011;9435;52.122;5.502;2022-07-04T04:56:44;15.93;;;8.23;;
18610;SDS011;9435;52.122;5.502;2022-07-04T04:59:13;16.67;;;8.18;;
18610;SDS011;9435;52.122;5.502;2022-07-04T05:01:40;14.32;;;8.15;;
18610;SDS011;9435;52.122;5.502;2022-07-04T05:04:07;16.92;;;8.57;;
18610;SDS011;9435;52.122;5.502;2022-07-04T05:06:34;14.98;;;8.15;;
18610;SDS011;9435;52.122;5.502;2022-07-04T05:09:01;13.00;;;7.68;;
18610;SDS011;9435;52.122;5.502;2022-07-04T05:11:28;15.57;;;8.30;;
18610;SDS011;9435;52.122;5.502;2022-07-04T05:13:55;12.30;;;7.90;;
18610;SDS011;9435;52.122;5.502;2022-07-04T05:16:24;15.77;;;8.30;;
18610;SDS011;9435;52.122;5.502;2022-07-04T05:18:51;15.60;;;8.30;;
18610;SDS011;9435;52.122;5.502;2022-07-04T05:21:18;12.50;;;7.30;;
18610;SDS011;9435;52.122;5.502;2022-07-04T05:23:47;18.23;;;8.00;;
18610;SDS011;9435;52.122;5.502;2022-07-04T05:26:14;12.73;;;7.40;;
18610;SDS011;9435;52.122;5.502;2022-07-04T05:28:41;14.25;;;8.07;;
18610;SDS011;9435;52.122;5.502;2022-07-04T05:31:08;12.30;;;7.53;;
18610;SDS011;9435;52.122;5.502;2022-07-04T05:33:37;13.50;;;7.43;;
18610;SDS011;9435;52.122;5.502;2022-07-04T05:36:04;11.73;;;7.60;;
18610;SDS011;9435;52.122;5.502;2022-07-04T05:38:32;11.82;;;7.15;;
18610;SDS011;9435;52.122;5.502;2022-07-04T05:40:59;14.90;;;8.02;;
18610;SDS011;9435;52.122;5.502;2022-07-04T05:43:27;14.88;;;7.45;;
18610;SDS011;9435;52.122;5.502;2022-07-04T05:45:54;12.27;;;7.10;;
18610;SDS011;9435;52.122;5.502;2022-07-04T05:48:21;9.98;;;6.40;;
18610;SDS011;9435;52.122;5.502;2022-07-04T05:50:49;14.00;;;6.60;;
18610;SDS011;9435;52.122;5.502;2022-07-04T05:53:16;11.10;;;6.35;;
18610;SDS011;9435;52.122;5.502;2022-07-04T05:55:43;13.25;;;6.00;;
18610;SDS011;9435;52.122;5.502;2022-07-04T05:58:11;11.88;;;5.60;;
18610;SDS011;9435;52.122;5.502;2022-07-04T06:00:39;13.02;;;5.80;;
18610;SDS011;9435;52.122;5.502;2022-07-04T06:03:07;10.10;;;5.63;;
18610;SDS011;9435;52.122;5.502;2022-07-04T06:05:34;13.00;;;5.32;;
18610;SDS011;9435;52.122;5.502;2022-07-04T06:08:05;8.82;;;5.57;;
18610;SDS011;9435;52.122;5.502;2022-07-04T06:10:32;12.35;;;5.75;;
18610;SDS011;9435;52.122;5.502;2022-07-04T06:12:59;10.18;;;5.05;;
18610;SDS011;9435;52.122;5.502;2022-07-04T06:15:26;8.82;;;5.00;;
18610;SDS011;9435;52.122;5.502;2022-07-04T06:17:53;9.55;;;5.13;;
18610;SDS011;9435;52.122;5.502;2022-07-04T06:20:20;10.15;;;5.10;;
18610;SDS011;9435;52.122;5.502;2022-07-04T06:22:48;12.45;;;5.55;;
18610;SDS011;9435;52.122;5.502;2022-07-04T06:25:19;10.20;;;5.00;;
18610;SDS011;9435;52.122;5.502;2022-07-04T06:27:47;12.88;;;5.53;;
18610;SDS011;9435;52.122;5.502;2022-07-04T06:30:16;10.82;;;4.93;;
18610;SDS011;9435;52.122;5.502;2022-07-04T06:32:44;11.27;;;5.18;;
18610;SDS011;9435;52.122;5.502;2022-07-04T06:35:12;11.15;;;5.07;;
18610;SDS011;9435;52.122;5.502;2022-07-04T06:37:57;10.13;;;5.13;;
18610;SDS011;9435;52.122;5.502;2022-07-04T06:40:26;15.15;;;5.07;;
18610;SDS011;9435;52.122;5.502;2022-07-04T06:42:53;11.57;;;5.22;;
18610;SDS011;9435;52.122;5.502;2022-07-04T06:45:20;9.98;;;4.60;;
18610;SDS011;9435;52.122;5.502;2022-07-04T06:47:47;12.13;;;4.75;;
18610;SDS011;9435;52.122;5.502;2022-07-04T06:50:15;11.30;;;5.30;;
18610;SDS011;9435;52.122;5.502;2022-07-04T06:52:43;13.93;;;4.95;;
18610;SDS011;9435;52.122;5.502;2022-07-04T06:55:10;9.63;;;4.60;;
18610;SDS011;9435;52.122;5.502;2022-07-04T06:57:43;10.48;;;4.95;;
18610;SDS011;9435;52.122;5.502;2022-07-04T07:00:11;18.73;;;6.18;;
18610;SDS011;9435;52.122;5.502;2022-07-04T07:02:39;12.75;;;4.97;;
18610;SDS011;9435;52.122;5.502;2022-07-04T07:05:07;13.43;;;4.72;;
18610;SDS011;9435;52.122;5.502;2022-07-04T07:07:34;16.08;;;4.70;;
18610;SDS011;9435;52.122;5.502;2022-07-04T07:10:01;12.68;;;5.15;;
18610;SDS011;9435;52.122;5.502;2022-07-04T07:12:31;11.98;;;4.40;;
18610;SDS011;9435;52.122;5.502;2022-07-04T07:15:00;12.82;;;4.53;;
18610;SDS011;9435;52.122;5.502;2022-07-04T07:17:28;8.88;;;4.20;;
18610;SDS011;9435;52.122;5.502;2022-07-04T07:19:55;10.93;;;4.30;;
18610;SDS011;9435;52.122;5.502;2022-07-04T07:22:22;8.70;;;4.68;;
18610;SDS011;9435;52.122;5.502;2022-07-04T07:24:49;10.68;;;4.53;;
18610;SDS011;9435;52.122;5.502;2022-07-04T07:27:16;10.68;;;4.22;;
18610;SDS011;9435;52.122;5.502;2022-07-04T07:29:44;12.88;;;4.97;;
18610;SDS011;9435;52.122;5.502;2022-07-04T07:32:12;10.43;;;4.30;;
18610;SDS011;9435;52.122;5.502;2022-07-04T07:34:39;11.40;;;4.65;;
18610;SDS011;9435;52.122;5.502;2022-07-04T07:37:06;11.38;;;4.50;;
18610;SDS011;9435;52.122;5.502;2022-07-04T07:39:33;11.77;;;4.32;;
18610;SDS011;9435;52.122;5.502;2022-07-04T07:42:00;10.20;;;4.22;;
18610;SDS011;9435;52.122;5.502;2022-07-04T07:44:28;10.70;;;4.25;;
18610;SDS011;9435;52.122;5.502;2022-07-04T07:46:55;12.25;;;4.15;;
18610;SDS011;9435;52.122;5.502;2022-07-04T07:49:23;11.43;;;4.45;;
18610;SDS011;9435;52.122;5.502;2022-07-04T07:51:50;11.45;;;3.78;;
18610;SDS011;9435;52.122;5.502;2022-07-04T07:54:17;7.63;;;3.45;;
18610;SDS011;9435;52.122;5.502;2022-07-04T07:56:44;11.38;;;3.80;;
18610;SDS011;9435;52.122;5.502;2022-07-04T07:59:11;8.50;;;3.20;;
18610;SDS011;9435;52.122;5.502;2022-07-04T08:01:38;10.15;;;3.30;;
18610;SDS011;9435;52.122;5.502;2022-07-04T08:04:05;7.05;;;3.58;;
18610;SDS011;9435;52.122;5.502;2022-07-04T08:06:51;7.50;;;3.70;;
18610;SDS011;9435;52.122;5.502;2022-07-04T08:09:18;9.55;;;4.00;;
18610;SDS011;9435;52.122;5.502;2022-07-04T08:11:45;7.63;;;3.20;;
18610;SDS011;9435;52.122;5.502;2022-07-04T08:14:12;8.15;;;2.80;;
18610;SDS011;9435;52.122;5.502;2022-07-04T08:16:39;7.90;;;2.58;;
18610;SDS011;9435;52.122;5.502;2022-07-04T08:19:06;8.35;;;2.80;;
18610;SDS011;9435;52.122;5.502;2022-07-04T08:21:34;6.57;;;3.30;;
18610;SDS011;9435;52.122;5.502;2022-07-04T08:24:02;7.43;;;2.60;;
18610;SDS011;9435;52.122;5.502;2022-07-04T08:26:30;7.45;;;2.63;;
18610;SDS011;9435;52.122;5.502;2022-07-04T08:28:57;6.88;;;2.30;;
18610;SDS011;9435;52.122;5.502;2022-07-04T08:31:24;9.82;;;2.63;;
18610;SDS011;9435;52.122;5.502;2022-07-04T08:33:52;4.28;;;2.05;;
18610;SDS011;9435;52.122;5.502;2022-07-04T08:36:19;4.88;;;2.17;;
18610;SDS011;9435;52.122;5.502;2022-07-04T08:38:46;6.18;;;2.08;;
18610;SDS011;9435;52.122;5.502;2022-07-04T08:41:17;10.30;;;2.10;;
18610;SDS011;9435;52.122;5.502;2022-07-04T08:43:44;6.82;;;2.08;;
18610;SDS011;9435;52.122;5.502;2022-07-04T08:46:13;6.10;;;1.70;;
18610;SDS011;9435;52.122;5.502;2022-07-04T08:48:47;6.60;;;1.90;;
18610;SDS011;9435;52.122;5.502;2022-07-04T08:51:18;6.40;;;1.88;;
18610;SDS011;9435;52.122;5.502;2022-07-04T08:53:52;4.80;;;1.58;;
18610;SDS011;9435;52.122;5.502;2022-07-04T08:56:25;3.40;;;1.38;;
18610;SDS011;9435;52.122;5.502;2022-07-04T08:59:10;6.07;;;1.60;;
18610;SDS011;9435;52.122;5.502;2022-07-04T09:01:40;4.07;;;1.50;;
18610;SDS011;9435;52.122;5.502;2022-07-04T09:04:09;4.53;;;1.40;;
18610;SDS011;9435;52.122;5.502;2022-07-04T09:06:37;5.07;;;1.50;;
18610;SDS011;9435;52.122;5.502;2022-07-04T09:09:06;5.93;;;1.83;;
18610;SDS011;9435;52.122;5.502;2022-07-04T09:11:35;5.05;;;1.65;;
18610;SDS011;9435;52.122;5.502;2022-07-04T09:14:02;3.13;;;1.42;;
18610;SDS011;9435;52.122;5.502;2022-07-04T09:16:29;6.32;;;1.70;;
18610;SDS011;9435;52.122;5.502;2022-07-04T09:18:56;7.15;;;1.90;;
18610;SDS011;9435;52.122;5.502;2022-07-04T09:24:08;4.80;;;2.00;;
18610;SDS011;9435;52.122;5.502;2022-07-04T09:26:37;4.88;;;1.80;;
18610;SDS011;9435;52.122;5.502;2022-07-04T09:29:07;4.20;;;1.70;;
18610;SDS011;9435;52.122;5.502;2022-07-04T09:31:34;6.13;;;1.67;;
18610;SDS011;9435;52.122;5.502;2022-07-04T09:34:04;3.60;;;1.60;;
18610;SDS011;9435;52.122;5.502;2022-07-04T09:36:35;4.13;;;1.60;;
18610;SDS011;9435;52.122;5.502;2022-07-04T09:39:10;5.50;;;1.60;;
18610;SDS011;9435;52.122;5.502;2022-07-04T09:41:54;5.22;;;1.70;;
18610;SDS011;9435;52.122;5.502;2022-07-04T09:44:22;6.65;;;1.40;;
18610;SDS011;9435;52.122;5.502;2022-07-04T09:46:50;5.88;;;1.38;;
18610;SDS011;9435;52.122;5.502;2022-07-04T09:49:18;4.97;;;1.60;;
18610;SDS011;9435;52.122;5.502;2022-07-04T09:51:46;7.47;;;1.42;;
18610;SDS011;9435;52.122;5.502;2022-07-04T09:54:21;3.17;;;1.27;;
18610;SDS011;9435;52.122;5.502;2022-07-04T09:56:52;3.88;;;1.40;;
18610;SDS011;9435;52.122;5.502;2022-07-04T09:59:22;4.07;;;1.20;;
18610;SDS011;9435;52.122;5.502;2022-07-04T10:01:50;3.40;;;1.55;;
18610;SDS011;9435;52.122;5.502;2022-07-04T10:04:17;4.60;;;1.63;;
18610;SDS011;9435;52.122;5.502;2022-07-04T10:06:46;2.92;;;1.45;;
18610;SDS011;9435;52.122;5.502;2022-07-04T10:09:13;3.58;;;1.60;;
18610;SDS011;9435;52.122;5.502;2022-07-04T10:11:42;4.07;;;1.60;;
18610;SDS011;9435;52.122;5.502;2022-07-04T10:14:12;2.13;;;1.33;;
18610;SDS011;9435;52.122;5.502;2022-07-04T10:16:41;3.75;;;1.20;;
18610;SDS011;9435;52.122;5.502;2022-07-04T10:19:08;3.83;;;1.50;;
18610;SDS011;9435;52.122;5.502;2022-07-04T10:21:37;3.13;;;1.02;;
18610;SDS011;9435;52.122;5.502;2022-07-04T10:24:05;3.90;;;1.33;;
18610;SDS011;9435;52.122;5.502;2022-07-04T10:26:33;3.63;;;1.10;;
18610;SDS011;9435;52.122;5.502;2022-07-04T10:29:00;2.67;;;1.23;;
18610;SDS011;9435;52.122;5.502;2022-07-04T10:31:29;4.78;;;1.30;;
18610;SDS011;9435;52.122;5.502;2022-07-04T10:33:58;7.18;;;1.35;;
18610;SDS011;9435;52.122;5.502;2022-07-04T10:36:26;4.07;;;1.30;;
18610;SDS011;9435;52.122;5.502;2022-07-04T10:38:55;2.22;;;1.10;;
18610;SDS011;9435;52.122;5.502;2022-07-04T10:41:24;5.15;;;1.10;;
18610;SDS011;9435;52.122;5.502;2022-07-04T10:46:33;3.25;;;1.10;;
18610;SDS011;9435;52.122;5.502;2022-07-04T10:49:18;2.80;;;1.17;;
18610;SDS011;9435;52.122;5.502;2022-07-04T10:51:47;3.35;;;1.20;;
18610;SDS011;9435;52.122;5.502;2022-07-04T10:54:16;2.53;;;1.25;;
18610;SDS011;9435;52.122;5.502;2022-07-04T10:56:45;3.67;;;1.20;;
18610;SDS011;9435;52.122;5.502;2022-07-04T10:59:15;1.70;;;1.10;;
18610;SDS011;9435;52.122;5.502;2022-07-04T11:01:52;4.28;;;1.35;;
18610;SDS011;9435;52.122;5.502;2022-07-04T11:04:47;4.28;;;1.40;;
18610;SDS011;9435;52.122;5.502;2022-07-04T11:07:17;2.58;;;1.42;;
18610;SDS011;9435;52.122;5.502;2022-07-04T11:09:45;4.88;;;2.10;;
18610;SDS011;9435;52.122;5.502;2022-07-04T11:12:13;3.90;;;1.77;;
18610;SDS011;9435;52.122;5.502;2022-07-04T11:14:41;3.15;;;1.85;;
18610;SDS011;9435;52.122;5.502;2022-07-04T11:17:11;2.88;;;1.60;;
18610;SDS011;9435;52.122;5.502;2022-07-04T11:19:39;4.43;;;1.50;;
18610;SDS011;9435;52.122;5.502;2022-07-04T11:22:08;2.97;;;1.40;;
18610;SDS011;9435;52.122;5.502;2022-07-04T11:24:36;3.10;;;1.60;;
18610;SDS011;9435;52.122;5.502;2022-07-04T11:27:06;2.80;;;1.45;;
18610;SDS011;9435;52.122;5.502;2022-07-04T11:29:34;3.13;;;1.27;;
18610;SDS011;9435;52.122;5.502;2022-07-04T11:32:01;1.90;;;1.05;;
18610;SDS011;9435;52.122;5.502;2022-07-04T11:34:33;4.68;;;1.10;;
18610;SDS011;9435;52.122;5.502;2022-07-04T11:37:01;1.83;;;1.00;;
18610;SDS011;9435;52.122;5.502;2022-07-04T11:39:29;2.42;;;0.93;;
18610;SDS011;9435;52.122;5.502;2022-07-04T11:41:57;2.20;;;1.27;;
18610;SDS011;9435;52.122;5.502;2022-07-04T11:44:42;2.33;;;1.02;;
18610;SDS011;9435;52.122;5.502;2022-07-04T11:47:31;1.65;;;1.00;;
18610;SDS011;9435;52.122;5.502;2022-07-04T11:50:02;2.80;;;1.13;;
18610;SDS011;9435;52.122;5.502;2022-07-04T11:52:39;1.70;;;1.00;;
18610;SDS011;9435;52.122;5.502;2022-07-04T11:55:08;3.25;;;1.20;;
18610;SDS011;9435;52.122;5.502;2022-07-04T11:57:37;1.98;;;0.90;;
18610;SDS011;9435;52.122;5.502;2022-07-04T12:00:05;2.67;;;1.15;;
18610;SDS011;9435;52.122;5.502;2022-07-04T12:02:35;2.20;;;1.02;;
18610;SDS011;9435;52.122;5.502;2022-07-04T12:05:05;2.40;;;1.25;;
18610;SDS011;9435;52.122;5.502;2022-07-04T12:07:35;2.38;;;1.10;;
18610;SDS011;9435;52.122;5.502;2022-07-04T12:10:06;2.33;;;1.05;;
18610;SDS011;9435;52.122;5.502;2022-07-04T12:12:35;2.22;;;0.90;;
18610;SDS011;9435;52.122;5.502;2022-07-04T12:15:16;2.47;;;1.10;;
18610;SDS011;9435;52.122;5.502;2022-07-04T12:17:43;2.72;;;1.20;;
18610;SDS011;9435;52.122;5.502;2022-07-04T12:20:12;4.20;;;1.15;;
18610;SDS011;9435;52.122;5.502;2022-07-04T12:22:43;2.60;;;1.10;;
18610;SDS011;9435;52.122;5.502;2022-07-04T12:25:20;3.42;;;1.20;;
18610;SDS011;9435;52.122;5.502;2022-07-04T12:27:52;1.92;;;1.10;;
18610;SDS011;9435;52.122;5.502;2022-07-04T12:30:20;2.25;;;1.17;;
18610;SDS011;9435;52.122;5.502;2022-07-04T12:32:51;2.38;;;1.10;;
18610;SDS011;9435;52.122;5.502;2022-07-04T12:35:39;2.88;;;1.10;;
18610;SDS011;9435;52.122;5.502;2022-07-04T12:38:10;3.72;;;1.40;;
18610;SDS011;9435;52.122;5.502;2022-07-04T12:40:49;3.83;;;1.15;;
18610;SDS011;9435;52.122;5.502;2022-07-04T12:43:21;2.58;;;1.08;;
18610;SDS011;9435;52.122;5.502;2022-07-04T12:45:49;3.25;;;1.13;;
18610;SDS011;9435;52.122;5.502;2022-07-04T12:48:20;1.80;;;0.80;;
18610;SDS011;9435;52.122;5.502;2022-07-04T12:50:50;8.02;;;1.20;;
18610;SDS011;9435;52.122;5.502;2022-07-04T12:53:18;3.22;;;1.13;;
18610;SDS011;9435;52.122;5.502;2022-07-04T12:55:46;1.88;;;1.00;;
18610;SDS011;9435;52.122;5.502;2022-07-04T12:58:14;2.25;;;1.02;;
18610;SDS011;9435;52.122;5.502;2022-07-04T13:00:41;2.55;;;1.00;;
18610;SDS011;9435;52.122;5.502;2022-07-04T13:03:08;1.30;;;0.80;;
18610;SDS011;9435;52.122;5.502;2022-07-04T13:05:35;2.70;;;1.00;;
18610;SDS011;9435;52.122;5.502;2022-07-04T13:08:05;3.03;;;1.15;;
18610;SDS011;9435;52.122;5.502;2022-07-04T13:10:32;2.65;;;1.30;;
18610;SDS011;9435;52.122;5.502;2022-07-04T13:13:00;2.50;;;1.05;;
18610;SDS011;9435;52.122;5.502;2022-07-04T13:15:27;2.88;;;1.00;;
18610;SDS011;9435;52.122;5.502;2022-07-04T13:17:54;2.72;;;1.10;;
18610;SDS011;9435;52.122;5.502;2022-07-04T13:20:21;5.10;;;1.10;;
18610;SDS011;9435;52.122;5.502;2022-07-04T13:22:49;4.07;;;1.17;;
18610;SDS011;9435;52.122;5.502;2022-07-04T13:25:17;2.80;;;1.10;;
18610;SDS011;9435;52.122;5.502;2022-07-04T13:27:44;2.42;;;1.10;;
18610;SDS011;9435;52.122;5.502;2022-07-04T13:30:12;3.45;;;1.10;;
18610;SDS011;9435;52.122;5.502;2022-07-04T13:32:39;2.47;;;0.95;;
18610;SDS011;9435;52.122;5.502;2022-07-04T13:35:07;1.55;;;1.00;;
18610;SDS011;9435;52.122;5.502;2022-07-04T13:37:34;2.63;;;1.00;;
18610;SDS011;9435;52.122;5.502;2022-07-04T13:40:01;4.18;;;1.10;;
18610;SDS011;9435;52.122;5.502;2022-07-04T13:42:30;2.63;;;1.00;;
18610;SDS011;9435;52.122;5.502;2022-07-04T13:45:26;3.42;;;1.08;;
18610;SDS011;9435;52.122;5.502;2022-07-04T13:47:54;3.25;;;1.30;;
18610;SDS011;9435;52.122;5.502;2022-07-04T13:50:23;2.97;;;1.10;;
18610;SDS011;9435;52.122;5.502;2022-07-04T13:52:51;5.63;;;1.00;;
18610;SDS011;9435;52.122;5.502;2022-07-04T13:55:18;1.95;;;0.90;;
18610;SDS011;9435;52.122;5.502;2022-07-04T13:57:46;2.35;;;1.00;;
18610;SDS011;9435;52.122;5.502;2022-07-04T14:00:13;1.98;;;0.90;;
18610;SDS011;9435;52.122;5.502;2022-07-04T14:02:41;2.25;;;1.10;;
18610;SDS011;9435;52.122;5.502;2022-07-04T14:05:08;4.68;;;1.30;;
18610;SDS011;9435;52.122;5.502;2022-07-04T14:07:35;2.53;;;1.02;;
18610;SDS011;9435;52.122;5.502;2022-07-04T14:10:03;1.52;;;0.85;;
18610;SDS011;9435;52.122;5.502;2022-07-04T14:12:31;3.35;;;1.00;;
18610;SDS011;9435;52.122;5.502;2022-07-04T14:14:59;1.52;;;0.93;;
18610;SDS011;9435;52.122;5.502;2022-07-04T14:17:27;2.83;;;1.05;;
18610;SDS011;9435;52.122;5.502;2022-07-04T14:19:54;5.72;;;0.90;;
18610;SDS011;9435;52.122;5.502;2022-07-04T14:22:22;2.13;;;1.00;;
18610;SDS011;9435;52.122;5.502;2022-07-04T14:24:49;2.38;;;1.15;;
18610;SDS011;9435;52.122;5.502;2022-07-04T14:27:16;3.30;;;1.05;;
18610;SDS011;9435;52.122;5.502;2022-07-04T14:29:44;2.45;;;1.00;;
18610;SDS011;9435;52.122;5.502;2022-07-04T14:32:12;2.33;;;1.10;;
18610;SDS011;9435;52.122;5.502;2022-07-04T14:34:39;4.68;;;1.20;;
18610;SDS011;9435;52.122;5.502;2022-07-04T14:37:07;2.75;;;1.10;;
18610;SDS011;9435;52.122;5.502;2022-07-04T14:39:34;2.45;;;1.00;;
18610;SDS011;9435;52.122;5.502;2022-07-04T14:42:01;1.90;;;1.10;;
18610;SDS011;9435;52.122;5.502;2022-07-04T14:44:28;1.58;;;1.08;;
18610;SDS011;9435;52.122;5.502;2022-07-04T14:46:55;1.77;;;1.02;;
18610;SDS011;9435;52.122;5.502;2022-07-04T14:49:23;6.18;;;1.23;;
18610;SDS011;9435;52.122;5.502;2022-07-04T14:51:50;2.80;;;0.90;;
18610;SDS011;9435;52.122;5.502;2022-07-04T14:54:19;3.53;;;1.30;;
18610;SDS011;9435;52.122;5.502;2022-07-04T14:56:46;2.78;;;1.10;;
18610;SDS011;9435;52.122;5.502;2022-07-04T14:59:13;3.65;;;1.30;;
18610;SDS011;9435;52.122;5.502;2022-07-04T15:01:40;2.15;;;1.10;;
18610;SDS011;9435;52.122;5.502;2022-07-04T15:04:07;2.05;;;1.02;;
18610;SDS011;9435;52.122;5.502;2022-07-04T15:06:35;1.45;;;0.90;;
18610;SDS011;9435;52.122;5.502;2022-07-04T15:09:03;2.30;;;1.05;;
18610;SDS011;9435;52.122;5.502;2022-07-04T15:11:31;1.83;;;0.90;;